Time;durP1;ratioP1;P1;durP2;ratioP2;P2;SDS_P1;SDS_P2;PMS_P1;PMS_P2;Temp;Humidity;BMP_temperature;BMP_pressure;BME280_temperature;BME280_humidity;BME280_pressure;Samples;Min_cycle;Max_cycle;Signal;HPM_P1;HPM_P2
2024/01/11 00:02:14;;;;;;;39.92;17.75;;;-6.30;99.90;;;;;;4943702;29;20036;-85
2024/01/11 00:04:40;;;;;;;35.33;16.88;;;-6.30;99.90;;;;;;4927197;28;20404;-85
2024/01/11 00:07:06;;;;;;;36.63;17.58;;;-6.40;99.90;;;;;;4945289;28;20035;-85
2024/01/11 00:09:32;;;;;;;30.48;14.95;;;-6.40;99.90;;;;;;4943638;29;20051;-84
2024/01/11 00:11:57;;;;;;;30.42;14.75;;;-6.40;99.90;;;;;;4942471;28;20035;-84
2024/01/11 00:14:23;;;;;;;33.35;15.52;;;-6.40;99.90;;;;;;4949178;29;20019;-84
2024/01/11 00:16:49;;;;;;;31.00;14.55;;;-6.40;99.90;;;;;;4931985;28;20027;-85
2024/01/11 00:19:15;;;;;;;33.47;15.35;;;-6.40;99.90;;;;;;4943787;29;20039;-85
2024/01/11 00:21:40;;;;;;;30.92;14.27;;;-6.40;99.90;;;;;;4946326;28;20035;-85
2024/01/11 00:24:06;;;;;;;30.75;14.02;;;-6.50;99.90;;;;;;4931354;28;20495;-85
2024/01/11 00:26:32;;;;;;;33.88;15.40;;;-6.50;99.90;;;;;;4943296;29;20061;-86
2024/01/11 00:28:57;;;;;;;33.35;15.32;;;-6.60;99.90;;;;;;4962919;28;20126;-85
2024/01/11 00:31:23;;;;;;;35.30;15.43;;;-6.60;99.90;;;;;;4942753;29;20038;-84
2024/01/11 00:33:49;;;;;;;32.33;15.18;;;-6.60;99.90;;;;;;4931983;28;20106;-85
2024/01/11 00:36:20;;;;;;;37.97;15.35;;;-6.60;99.90;;;;;;4944291;28;20034;-84
2024/01/11 00:38:45;;;;;;;31.67;14.55;;;-6.70;99.90;;;;;;4944082;28;20043;-84
2024/01/11 00:41:11;;;;;;;34.08;14.82;;;-6.70;99.90;;;;;;4942714;29;20027;-84
2024/01/11 00:43:37;;;;;;;32.70;15.48;;;-6.70;99.90;;;;;;4960136;28;20082;-84
2024/01/11 00:46:03;;;;;;;30.08;15.35;;;-6.70;99.90;;;;;;4940841;29;20032;-86
2024/01/11 00:48:28;;;;;;;36.03;14.93;;;-6.70;99.90;;;;;;4939788;29;20081;-85
2024/01/11 00:50:54;;;;;;;31.48;14.50;;;-6.80;99.90;;;;;;4939927;28;20039;-85
2024/01/11 00:53:20;;;;;;;34.00;14.23;;;-6.80;99.90;;;;;;4955879;28;20040;-84
2024/01/11 00:55:46;;;;;;;36.58;15.63;;;-6.80;99.90;;;;;;4956359;28;20369;-85
2024/01/11 00:58:11;;;;;;;30.30;14.82;;;-6.80;99.90;;;;;;4957320;28;20121;-84
2024/01/11 01:00:37;;;;;;;29.52;14.27;;;-6.80;99.90;;;;;;4944039;28;20058;-84
2024/01/11 01:03:03;;;;;;;34.53;14.95;;;-6.80;99.90;;;;;;4942118;28;20518;-85
2024/01/11 01:05:29;;;;;;;32.95;15.20;;;-6.80;99.90;;;;;;4926729;29;20118;-85
2024/01/11 01:07:55;;;;;;;31.88;15.40;;;-6.80;99.90;;;;;;4961323;28;20063;-86
2024/01/11 01:10:20;;;;;;;33.47;14.75;;;-6.80;99.90;;;;;;4943415;29;20031;-84
2024/01/11 01:12:46;;;;;;;33.05;15.25;;;-6.80;99.90;;;;;;4960144;28;20034;-85
2024/01/11 01:15:14;;;;;;;31.23;14.18;;;-6.80;99.90;;;;;;4940222;29;20027;-85
2024/01/11 01:17:39;;;;;;;27.90;13.25;;;-6.80;99.90;;;;;;4942098;28;20067;-83
2024/01/11 01:20:06;;;;;;;31.55;13.55;;;-6.80;99.90;;;;;;4942081;28;20026;-84
2024/01/11 01:22:32;;;;;;;29.02;14.00;;;-6.80;99.90;;;;;;4958034;28;20043;-85
2024/01/11 01:24:58;;;;;;;30.23;14.65;;;-6.70;99.90;;;;;;4955064;28;20455;-85
2024/01/11 01:27:24;;;;;;;34.58;14.48;;;-6.70;99.90;;;;;;4939055;29;20038;-85
2024/01/11 01:29:50;;;;;;;35.55;15.40;;;-6.80;99.90;;;;;;4947104;29;20054;-86
2024/01/11 01:32:15;;;;;;;30.25;14.15;;;-6.80;99.90;;;;;;4939412;29;20400;-86
2024/01/11 01:34:41;;;;;;;29.63;14.90;;;-6.80;99.90;;;;;;4938754;29;20059;-86
2024/01/11 01:37:07;;;;;;;33.60;15.55;;;-6.90;99.90;;;;;;4939706;29;20488;-85
2024/01/11 01:39:32;;;;;;;33.78;15.18;;;-6.90;99.90;;;;;;4939342;29;20518;-85
2024/01/11 01:41:58;;;;;;;27.98;13.82;;;-7.00;99.90;;;;;;4955018;29;20035;-85
2024/01/11 01:44:24;;;;;;;29.02;14.05;;;-6.90;99.90;;;;;;4923443;29;20179;-85
2024/01/11 01:46:52;;;;;;;33.53;14.40;;;-6.90;99.90;;;;;;4933977;28;20544;-85
2024/01/11 01:49:22;;;;;;;31.85;14.07;;;-7.00;99.90;;;;;;4960917;28;20559;-85
2024/01/11 01:51:48;;;;;;;29.42;14.75;;;-7.00;99.90;;;;;;4940194;28;20035;-86
2024/01/11 01:54:15;;;;;;;30.58;14.40;;;-7.00;99.90;;;;;;4955674;29;20051;-86
2024/01/11 01:56:41;;;;;;;31.27;14.95;;;-6.90;99.90;;;;;;4938286;29;20491;-85
2024/01/11 01:59:10;;;;;;;33.60;15.50;;;-7.00;99.90;;;;;;4944893;28;20038;-85
2024/01/11 02:01:36;;;;;;;30.75;14.73;;;-7.00;99.90;;;;;;4933823;29;20178;-85
2024/01/11 02:04:02;;;;;;;31.42;14.55;;;-6.90;99.90;;;;;;4937985;29;20093;-85
2024/01/11 02:06:32;;;;;;;31.85;14.75;;;-6.90;99.90;;;;;;4940031;29;20043;-85
2024/01/11 02:09:00;;;;;;;29.85;14.73;;;-6.90;99.90;;;;;;4938017;29;20043;-86
2024/01/11 02:11:27;;;;;;;33.50;15.48;;;-6.90;99.90;;;;;;4923423;29;20090;-85
2024/01/11 02:13:53;;;;;;;30.08;13.93;;;-7.00;99.90;;;;;;4955539;29;20035;-86
2024/01/11 02:16:19;;;;;;;31.30;14.38;;;-7.00;99.90;;;;;;4955159;28;20035;-86
2024/01/11 02:18:45;;;;;;;27.70;13.80;;;-7.00;99.90;;;;;;4939893;29;20027;-86
2024/01/11 02:21:13;;;;;;;32.35;14.10;;;-7.00;99.90;;;;;;4955775;29;20530;-85
2024/01/11 02:23:47;;;;;;;34.63;14.20;;;-7.00;99.90;;;;;;4947550;29;20039;-84
2024/01/11 02:26:14;;;;;;;33.08;14.30;;;-7.00;99.90;;;;;;4930070;28;20407;-84
2024/01/11 02:28:46;;;;;;;30.80;15.23;;;-7.00;99.90;;;;;;4948274;28;20125;-85
2024/01/11 02:31:14;;;;;;;31.10;15.23;;;-7.00;99.90;;;;;;4945641;28;20110;-85
2024/01/11 02:33:40;;;;;;;33.88;14.80;;;-7.00;99.90;;;;;;4958282;28;20046;-85
2024/01/11 02:36:06;;;;;;;28.25;14.25;;;-7.00;99.90;;;;;;4947348;28;20027;-85
2024/01/11 02:38:34;;;;;;;30.92;14.98;;;-7.00;99.90;;;;;;4956878;29;20035;-85
2024/01/11 02:41:00;;;;;;;34.05;14.52;;;-7.00;99.90;;;;;;4943797;29;20491;-86
2024/01/11 02:43:26;;;;;;;28.20;14.00;;;-7.10;99.90;;;;;;4955364;29;20023;-85
2024/01/11 02:45:55;;;;;;;33.05;14.00;;;-7.10;99.90;;;;;;4956243;28;20035;-87
2024/01/11 02:48:21;;;;;;;25.42;13.15;;;-7.00;99.90;;;;;;4944817;28;20035;-85
2024/01/11 02:50:49;;;;;;;28.50;12.95;;;-7.10;99.90;;;;;;4957164;29;20549;-85
2024/01/11 02:53:14;;;;;;;31.15;14.20;;;-7.10;99.90;;;;;;4923978;29;20070;-86
2024/01/11 02:55:40;;;;;;;28.67;13.93;;;-7.10;99.90;;;;;;4958788;28;20031;-85
2024/01/11 02:58:06;;;;;;;30.05;14.10;;;-7.20;99.90;;;;;;4939099;29;20023;-86
2024/01/11 03:00:31;;;;;;;33.15;15.15;;;-7.20;99.90;;;;;;4955343;29;20031;-86
2024/01/11 03:02:57;;;;;;;32.53;14.02;;;-7.20;99.90;;;;;;4939029;29;20635;-86
2024/01/11 03:05:23;;;;;;;33.65;15.27;;;-7.20;99.90;;;;;;4939038;29;20035;-86
2024/01/11 03:07:49;;;;;;;28.00;14.38;;;-7.30;99.90;;;;;;4956332;28;20484;-86
2024/01/11 03:10:14;;;;;;;32.47;14.90;;;-7.30;99.90;;;;;;4938253;29;20028;-86
2024/01/11 03:12:40;;;;;;;31.40;15.60;;;-7.30;99.90;;;;;;4955054;29;20031;-84
2024/01/11 03:15:06;;;;;;;33.55;14.95;;;-7.30;99.90;;;;;;4943789;28;20113;-85
2024/01/11 03:17:33;;;;;;;27.40;14.02;;;-7.20;99.90;;;;;;4962275;28;20520;-86
2024/01/11 03:19:59;;;;;;;32.15;14.35;;;-7.30;99.90;;;;;;4946910;29;20704;-86
2024/01/11 03:22:25;;;;;;;31.33;15.55;;;-7.30;99.90;;;;;;4938794;28;20118;-86
2024/01/11 03:24:51;;;;;;;27.88;14.43;;;-7.30;99.90;;;;;;4967396;28;20094;-86
2024/01/11 03:27:18;;;;;;;36.65;16.52;;;-7.30;99.90;;;;;;4926858;29;20031;-85
2024/01/11 03:29:43;;;;;;;32.15;15.05;;;-7.30;99.90;;;;;;4937320;29;20044;-86
2024/01/11 03:32:12;;;;;;;33.75;15.15;;;-7.40;99.90;;;;;;4938179;28;20043;-84
2024/01/11 03:34:38;;;;;;;32.65;15.98;;;-7.40;99.90;;;;;;4938832;29;20035;-86
2024/01/11 03:37:05;;;;;;;31.35;15.65;;;-7.40;99.90;;;;;;4938536;29;20081;-86
2024/01/11 03:39:31;;;;;;;34.70;15.60;;;-7.40;99.90;;;;;;4954360;29;20039;-85
2024/01/11 03:41:56;;;;;;;28.20;14.18;;;-7.40;99.90;;;;;;4953931;29;20039;-85
2024/01/11 03:44:22;;;;;;;29.52;14.48;;;-7.40;99.90;;;;;;4953996;28;20069;-85
2024/01/11 03:46:48;;;;;;;32.72;15.48;;;-7.40;99.90;;;;;;4956522;28;20038;-86
2024/01/11 03:49:14;;;;;;;31.98;15.07;;;-7.40;99.90;;;;;;4952511;29;20062;-85
2024/01/11 03:51:39;;;;;;;31.40;15.25;;;-7.40;99.90;;;;;;4921947;29;20043;-86
2024/01/11 03:54:05;;;;;;;32.83;16.10;;;-7.40;99.90;;;;;;4937955;29;20031;-84
2024/01/11 03:56:31;;;;;;;29.58;14.48;;;-7.40;99.90;;;;;;4937921;29;20039;-85
2024/01/11 03:58:57;;;;;;;32.15;15.20;;;-7.50;99.90;;;;;;4938234;29;20047;-84
2024/01/11 04:01:23;;;;;;;29.55;13.80;;;-7.50;99.90;;;;;;4938162;29;20035;-85
2024/01/11 04:03:49;;;;;;;34.03;15.93;;;-7.50;99.90;;;;;;4937994;29;20043;-84
2024/01/11 04:06:22;;;;;;;30.67;14.18;;;-7.50;99.90;;;;;;4954019;28;20043;-86
2024/01/11 04:08:48;;;;;;;28.48;13.93;;;-7.50;99.90;;;;;;4939825;29;20178;-86
2024/01/11 04:11:14;;;;;;;28.45;14.98;;;-7.60;99.90;;;;;;4954025;29;20062;-86
2024/01/11 04:13:40;;;;;;;31.42;15.13;;;-7.60;99.90;;;;;;4937607;28;20097;-87
2024/01/11 04:16:06;;;;;;;32.83;15.25;;;-7.60;99.90;;;;;;4952595;28;20538;-87
2024/01/11 04:18:32;;;;;;;32.03;15.07;;;-7.60;99.90;;;;;;4941733;29;20055;-85
2024/01/11 04:20:58;;;;;;;30.23;14.48;;;-7.60;99.90;;;;;;4953758;28;20095;-85
2024/01/11 04:23:24;;;;;;;27.02;14.30;;;-7.60;99.90;;;;;;4925429;29;20043;-85
2024/01/11 04:25:51;;;;;;;29.75;15.15;;;-7.50;99.90;;;;;;4947644;29;20176;-85
2024/01/11 04:28:17;;;;;;;32.10;15.40;;;-7.60;99.90;;;;;;4955203;28;20035;-84
2024/01/11 04:30:43;;;;;;;29.52;13.95;;;-7.70;99.90;;;;;;4968933;28;20488;-84
2024/01/11 04:33:27;;;;;;;29.60;13.68;;;-7.70;99.90;;;;;;4933157;29;20131;-84
2024/01/11 04:35:53;;;;;;;36.90;16.70;;;-7.70;99.90;;;;;;4955866;29;20067;-84
2024/01/11 04:38:19;;;;;;;32.85;15.02;;;-7.70;99.90;;;;;;4940950;29;20043;-86
2024/01/11 04:40:45;;;;;;;31.15;15.23;;;-7.70;99.90;;;;;;4956789;29;20525;-86
2024/01/11 04:43:10;;;;;;;33.20;15.68;;;-7.70;99.90;;;;;;4948375;29;20035;-86
2024/01/11 04:45:36;;;;;;;33.67;14.75;;;-7.70;99.90;;;;;;4940500;29;20047;-85
2024/01/11 04:48:02;;;;;;;33.00;14.63;;;-7.80;99.90;;;;;;4942593;29;20036;-85
2024/01/11 04:50:28;;;;;;;37.85;15.45;;;-7.80;99.90;;;;;;4941895;29;20051;-85
2024/01/11 04:52:53;;;;;;;30.17;14.63;;;-7.80;99.90;;;;;;4940342;29;20123;-85
2024/01/11 04:55:19;;;;;;;31.65;14.63;;;-7.90;99.90;;;;;;4956266;28;20035;-85
2024/01/11 04:57:45;;;;;;;34.42;14.65;;;-7.90;99.90;;;;;;4969412;28;20181;-85
2024/01/11 05:00:11;;;;;;;34.50;16.10;;;-7.90;99.90;;;;;;4939808;29;20049;-85
2024/01/11 05:02:37;;;;;;;30.15;14.65;;;-7.90;99.90;;;;;;4939977;29;20409;-86
2024/01/11 05:05:03;;;;;;;27.08;14.13;;;-7.90;99.90;;;;;;4941296;28;20038;-85
2024/01/11 05:07:29;;;;;;;30.35;15.10;;;-7.90;99.90;;;;;;4942659;29;20047;-87
2024/01/11 05:09:55;;;;;;;29.55;16.02;;;-7.90;99.90;;;;;;4957322;29;20036;-86
2024/01/11 05:12:20;;;;;;;33.60;16.75;;;-7.90;99.90;;;;;;4941857;29;20035;-84
2024/01/11 05:14:46;;;;;;;36.03;16.60;;;-7.90;99.90;;;;;;4947616;29;20110;-85
2024/01/11 05:17:13;;;;;;;39.33;17.85;;;-7.90;99.90;;;;;;4956309;28;20057;-85
2024/01/11 05:19:39;;;;;;;35.17;16.58;;;-7.90;99.90;;;;;;4939382;29;20046;-86
2024/01/11 05:22:04;;;;;;;33.78;16.15;;;-7.90;99.90;;;;;;4939397;29;20122;-85
2024/01/11 05:24:30;;;;;;;33.25;14.93;;;-7.90;99.90;;;;;;4955324;28;20035;-86
2024/01/11 05:26:56;;;;;;;34.53;15.65;;;-7.80;99.90;;;;;;4940811;28;20039;-86
2024/01/11 05:29:21;;;;;;;31.75;15.55;;;-7.90;99.90;;;;;;4928448;29;20500;-86
2024/01/11 05:31:47;;;;;;;33.55;15.00;;;-7.90;99.90;;;;;;4955835;28;20038;-85
2024/01/11 05:34:13;;;;;;;28.20;14.15;;;-7.90;99.90;;;;;;4969447;28;20090;-86
2024/01/11 05:36:38;;;;;;;29.02;13.52;;;-7.90;99.90;;;;;;4942251;29;20036;-86
2024/01/11 05:39:04;;;;;;;30.17;15.45;;;-8.00;99.90;;;;;;4925365;29;20031;-87
2024/01/11 05:41:30;;;;;;;32.03;15.68;;;-8.00;99.90;;;;;;4932846;29;20132;-86
2024/01/11 05:43:56;;;;;;;29.63;14.65;;;-8.00;99.90;;;;;;4938935;29;20404;-85
2024/01/11 05:46:22;;;;;;;30.58;14.23;;;-8.00;99.90;;;;;;4957310;28;20028;-86
2024/01/11 05:48:48;;;;;;;33.58;14.65;;;-8.00;99.90;;;;;;4940238;29;20517;-84
2024/01/11 05:51:14;;;;;;;30.20;14.30;;;-8.10;99.90;;;;;;4956476;29;20098;-85
2024/01/11 05:53:39;;;;;;;33.70;15.05;;;-8.10;99.90;;;;;;4940693;29;20031;-86
2024/01/11 05:56:09;;;;;;;34.85;15.75;;;-8.10;99.90;;;;;;4939815;28;20284;-85
2024/01/11 05:58:36;;;;;;;37.67;15.57;;;-8.10;99.90;;;;;;4957299;29;20023;-85
2024/01/11 06:01:03;;;;;;;31.35;15.00;;;-8.20;99.90;;;;;;4956570;29;20025;-86
2024/01/11 06:03:29;;;;;;;31.25;15.05;;;-8.20;99.90;;;;;;4957343;29;20484;-85
2024/01/11 06:05:55;;;;;;;30.10;13.80;;;-8.20;99.90;;;;;;4958654;28;20522;-86
2024/01/11 06:08:21;;;;;;;29.83;15.25;;;-8.20;99.90;;;;;;4955633;28;20039;-86
2024/01/11 06:10:47;;;;;;;34.05;15.90;;;-8.20;99.90;;;;;;4956511;29;20039;-85
2024/01/11 06:13:12;;;;;;;35.58;15.73;;;-8.30;99.90;;;;;;4947886;29;20031;-84
2024/01/11 06:15:38;;;;;;;32.60;14.65;;;-8.30;99.90;;;;;;4955318;29;20095;-86
2024/01/11 06:18:04;;;;;;;32.28;14.55;;;-8.30;99.90;;;;;;4933495;29;20066;-85
2024/01/11 06:20:30;;;;;;;30.65;14.63;;;-8.40;99.90;;;;;;4936872;29;20113;-85
2024/01/11 06:22:56;;;;;;;30.48;14.43;;;-8.30;99.90;;;;;;4945578;29;20380;-85
2024/01/11 06:25:22;;;;;;;33.22;14.45;;;-8.40;99.90;;;;;;4939587;29;20046;-85
2024/01/11 06:27:47;;;;;;;37.38;16.52;;;-8.30;99.90;;;;;;4945320;28;20059;-86
2024/01/11 06:30:13;;;;;;;33.50;16.13;;;-8.30;99.90;;;;;;4956042;28;20109;-86
2024/01/11 06:32:39;;;;;;;34.17;16.17;;;-8.30;99.90;;;;;;4938633;29;20031;-84
2024/01/11 06:35:05;;;;;;;33.83;14.93;;;-8.20;99.90;;;;;;4939066;29;20376;-85
2024/01/11 06:37:31;;;;;;;32.95;15.07;;;-8.20;99.90;;;;;;4938623;29;20124;-84
2024/01/11 06:39:57;;;;;;;33.92;15.32;;;-8.20;99.90;;;;;;4964793;28;20027;-85
2024/01/11 06:42:23;;;;;;;33.45;15.35;;;-8.20;99.90;;;;;;4935422;29;20395;-84
2024/01/11 06:44:48;;;;;;;38.58;14.75;;;-8.30;99.90;;;;;;4935686;29;20048;-86
2024/01/11 06:47:14;;;;;;;35.25;16.40;;;-8.20;99.90;;;;;;4958751;28;20031;-85
2024/01/11 06:49:41;;;;;;;35.70;17.17;;;-8.20;99.90;;;;;;4959896;28;20035;-86
2024/01/11 06:52:07;;;;;;;35.47;16.23;;;-8.20;99.90;;;;;;4939236;29;20027;-86
2024/01/11 06:54:32;;;;;;;33.38;16.20;;;-8.20;99.90;;;;;;4937919;29;20522;-85
2024/01/11 06:56:58;;;;;;;37.50;17.33;;;-8.20;99.90;;;;;;4945606;28;20031;-85
2024/01/11 06:59:24;;;;;;;35.90;16.63;;;-8.20;99.90;;;;;;4954590;28;20099;-85
2024/01/11 07:01:50;;;;;;;37.97;17.38;;;-8.30;99.90;;;;;;4955782;29;20031;-86
2024/01/11 07:04:16;;;;;;;34.95;17.13;;;-8.20;99.90;;;;;;4922847;29;20035;-86
2024/01/11 07:06:41;;;;;;;36.42;16.70;;;-8.20;99.90;;;;;;4960971;28;20047;-85
2024/01/11 07:09:07;;;;;;;34.45;15.95;;;-8.20;99.90;;;;;;4940346;29;20027;-86
2024/01/11 07:11:33;;;;;;;32.83;14.63;;;-8.20;99.90;;;;;;4962480;28;20036;-86
2024/01/11 07:13:59;;;;;;;28.27;14.48;;;-8.20;99.90;;;;;;4930939;29;20058;-85
2024/01/11 07:16:25;;;;;;;31.42;14.77;;;-8.20;99.90;;;;;;4962537;28;20027;-85
2024/01/11 07:18:50;;;;;;;34.08;16.67;;;-8.20;99.90;;;;;;4924769;29;20473;-84
2024/01/11 07:21:32;;;;;;;35.45;16.00;;;-8.30;99.90;;;;;;4938783;29;20090;-84
2024/01/11 07:24:01;;;;;;;37.97;16.70;;;-8.30;99.90;;;;;;4938004;29;20094;-85
2024/01/11 07:26:27;;;;;;;37.95;18.83;;;-8.30;99.90;;;;;;4938096;29;20085;-85
2024/01/11 07:28:56;;;;;;;35.47;17.05;;;-8.30;99.90;;;;;;4955463;29;20050;-84
2024/01/11 07:31:22;;;;;;;35.42;17.48;;;-8.30;99.90;;;;;;4951674;29;20038;-86
2024/01/11 07:33:48;;;;;;;37.53;17.40;;;-8.20;99.90;;;;;;4956176;28;20031;-86
2024/01/11 07:36:14;;;;;;;34.80;18.15;;;-8.20;99.90;;;;;;4938113;28;20035;-86
2024/01/11 07:38:40;;;;;;;35.70;17.33;;;-8.30;99.90;;;;;;4938040;29;20055;-86
2024/01/11 07:41:06;;;;;;;37.33;17.33;;;-8.30;99.90;;;;;;4953355;29;20031;-86
2024/01/11 07:43:35;;;;;;;33.17;16.33;;;-8.20;99.90;;;;;;4937959;29;20095;-84
2024/01/11 07:46:01;;;;;;;34.85;16.10;;;-8.20;99.90;;;;;;4947359;28;20502;-86
2024/01/11 07:48:27;;;;;;;38.45;17.40;;;-8.20;99.90;;;;;;4955075;29;20106;-84
2024/01/11 07:50:53;;;;;;;39.63;18.38;;;-8.20;99.90;;;;;;4955151;28;20127;-84
2024/01/11 07:53:19;;;;;;;34.67;17.65;;;-8.10;99.90;;;;;;4953819;29;20024;-85
2024/01/11 07:55:47;;;;;;;35.67;16.55;;;-8.10;99.90;;;;;;4955930;28;20058;-85
2024/01/11 07:58:14;;;;;;;36.80;17.02;;;-8.10;99.90;;;;;;4942313;29;20042;-86
2024/01/11 08:00:40;;;;;;;44.50;19.67;;;-8.00;99.90;;;;;;4949406;28;20602;-86
2024/01/11 08:03:06;;;;;;;41.38;19.98;;;-8.00;99.90;;;;;;4957315;29;20043;-86
2024/01/11 08:05:32;;;;;;;41.67;19.33;;;-8.00;99.90;;;;;;4949164;29;20039;-85
2024/01/11 08:08:01;;;;;;;38.10;17.42;;;-7.90;99.90;;;;;;4957247;28;20039;-85
2024/01/11 08:10:27;;;;;;;29.58;14.80;;;-7.90;99.90;;;;;;4956848;29;20031;-85
2024/01/11 08:12:53;;;;;;;36.03;15.43;;;-7.90;99.90;;;;;;4925438;29;20042;-85
2024/01/11 08:15:18;;;;;;;42.42;18.30;;;-7.80;99.90;;;;;;4957352;29;20039;-85
2024/01/11 08:17:45;;;;;;;45.25;20.35;;;-7.70;99.90;;;;;;4943770;29;20039;-84
2024/01/11 08:20:11;;;;;;;47.22;22.17;;;-7.60;99.90;;;;;;4948114;29;20027;-85
2024/01/11 08:22:39;;;;;;;42.60;21.23;;;-7.50;99.90;;;;;;4932823;29;20415;-86
2024/01/11 08:25:05;;;;;;;46.65;21.27;;;-7.30;99.90;;;;;;4965003;28;20027;-86
2024/01/11 08:27:32;;;;;;;48.95;21.77;;;-7.20;99.90;;;;;;4957576;28;20079;-86
2024/01/11 08:29:58;;;;;;;49.08;21.77;;;-7.10;99.90;;;;;;4950701;28;20055;-85
2024/01/11 08:32:23;;;;;;;38.90;20.05;;;-7.00;99.90;;;;;;4945958;29;20053;-86
2024/01/11 08:34:49;;;;;;;41.13;20.33;;;-6.90;99.90;;;;;;4916451;28;20034;-85
2024/01/11 08:37:15;;;;;;;44.60;19.63;;;-6.80;99.90;;;;;;4940446;29;20062;-85
2024/01/11 08:39:41;;;;;;;44.90;18.65;;;-6.60;99.90;;;;;;4943268;28;20530;-85
2024/01/11 08:42:07;;;;;;;36.80;17.48;;;-6.60;99.90;;;;;;4956317;29;20045;-86
2024/01/11 08:44:33;;;;;;;35.10;16.20;;;-6.50;99.90;;;;;;4940365;29;20066;-85
2024/01/11 08:46:59;;;;;;;37.72;16.60;;;-6.40;99.90;;;;;;4928743;29;20063;-88
2024/01/11 08:49:25;;;;;;;34.47;16.25;;;-6.30;99.90;;;;;;4908366;29;20087;-88
2024/01/11 08:51:51;;;;;;;30.92;15.55;;;-6.20;99.90;;;;;;4941385;28;20031;-87
2024/01/11 08:54:20;;;;;;;32.55;15.48;;;-6.20;99.90;;;;;;4956696;28;20396;-86
2024/01/11 08:56:49;;;;;;;33.78;16.45;;;-6.10;99.90;;;;;;4927819;28;20039;-85
2024/01/11 08:59:15;;;;;;;33.22;16.02;;;-6.00;99.90;;;;;;4956338;28;20118;-86
2024/01/11 09:01:41;;;;;;;35.15;16.30;;;-5.90;99.90;;;;;;4959119;28;20148;-86
2024/01/11 09:04:08;;;;;;;33.55;15.95;;;-5.80;99.90;;;;;;4956202;28;20856;-87
2024/01/11 09:06:34;;;;;;;38.08;16.00;;;-5.70;99.90;;;;;;4910030;28;20046;-86
2024/01/11 09:09:00;;;;;;;38.85;16.45;;;-5.70;99.90;;;;;;4940652;28;20036;-88
2024/01/11 09:11:26;;;;;;;39.47;18.02;;;-5.60;99.90;;;;;;4923836;29;20034;-86
2024/01/11 09:13:52;;;;;;;41.70;16.92;;;-5.50;99.90;;;;;;4942134;28;20039;-87
2024/01/11 09:16:17;;;;;;;42.70;19.73;;;-5.40;99.90;;;;;;4957422;28;20035;-87
2024/01/11 09:18:45;;;;;;;47.90;19.65;;;-5.30;99.90;;;;;;4939897;28;20036;-87
2024/01/11 09:21:12;;;;;;;42.30;19.60;;;-5.30;99.90;;;;;;4937201;28;20034;-87
2024/01/11 09:23:38;;;;;;;39.65;19.25;;;-5.10;99.90;;;;;;4946865;28;20040;-86
2024/01/11 09:26:05;;;;;;;40.70;19.88;;;-5.00;99.90;;;;;;4956082;28;20089;-87
2024/01/11 09:28:30;;;;;;;39.75;20.38;;;-4.80;99.90;;;;;;4940059;28;20485;-87
2024/01/11 09:30:59;;;;;;;45.55;20.00;;;-4.60;99.90;;;;;;4947585;28;20045;-86
2024/01/11 09:33:26;;;;;;;43.10;18.83;;;-4.60;99.90;;;;;;4939939;29;20407;-86
2024/01/11 09:35:52;;;;;;;46.80;20.08;;;-4.50;99.90;;;;;;4942034;28;20103;-87
2024/01/11 09:38:18;;;;;;;45.30;20.63;;;-4.40;99.90;;;;;;4962148;28;20122;-87
2024/01/11 09:40:44;;;;;;;41.67;18.77;;;-4.40;99.90;;;;;;4938827;28;20031;-85
2024/01/11 09:43:10;;;;;;;38.50;17.65;;;-4.30;99.90;;;;;;4943028;28;20050;-86
2024/01/11 09:45:37;;;;;;;38.55;18.27;;;-4.20;99.90;;;;;;4939662;28;20035;-88
2024/01/11 09:48:06;;;;;;;40.45;20.88;;;-4.10;99.90;;;;;;4925323;28;20041;-89
2024/01/11 09:50:32;;;;;;;44.75;20.60;;;-4.10;99.90;;;;;;4927010;29;20039;-88
2024/01/11 09:53:03;;;;;;;44.17;20.20;;;-4.00;99.90;;;;;;4942879;28;20134;-89
2024/01/11 09:55:29;;;;;;;41.38;20.67;;;-3.90;99.90;;;;;;4941514;28;20035;-89
2024/01/11 09:57:59;;;;;;;47.60;20.98;;;-3.90;99.90;;;;;;4958391;28;20488;-87
2024/01/11 10:00:25;;;;;;;45.88;20.88;;;-3.90;99.90;;;;;;4956624;28;20688;-89
2024/01/11 10:02:52;;;;;;;45.30;21.20;;;-3.70;99.90;;;;;;4924484;28;20035;-88
2024/01/11 10:05:18;;;;;;;43.90;20.52;;;-3.70;99.90;;;;;;4957322;28;20531;-85
2024/01/11 10:07:45;;;;;;;43.20;20.20;;;-3.60;99.90;;;;;;4957773;28;20133;-85
2024/01/11 10:10:15;;;;;;;46.15;20.30;;;-3.50;99.90;;;;;;4942380;28;20030;-86
2024/01/11 10:12:41;;;;;;;42.90;20.42;;;-3.40;99.90;;;;;;4958625;28;20563;-87
2024/01/11 10:15:10;;;;;;;46.67;20.45;;;-3.40;99.90;;;;;;4940556;28;20094;-87
2024/01/11 10:17:44;;;;;;;47.30;21.23;;;-3.30;99.90;;;;;;4941043;29;20476;-87
2024/01/11 10:20:14;;;;;;;42.92;20.70;;;-3.20;99.90;;;;;;4940644;28;20027;-87
2024/01/11 10:22:49;;;;;;;43.08;20.73;;;-3.10;99.90;;;;;;4941743;29;20132;-85
2024/01/11 10:25:17;;;;;;;44.35;19.55;;;-3.20;99.90;;;;;;4940116;28;20082;-85
2024/01/11 10:27:45;;;;;;;41.15;19.70;;;-3.10;99.90;;;;;;4945192;28;20135;-87
2024/01/11 10:30:13;;;;;;;40.53;19.02;;;-3.10;99.90;;;;;;4922286;29;20135;-88
2024/01/11 10:32:39;;;;;;;43.72;20.52;;;-3.00;99.90;;;;;;4951019;28;20451;-88
2024/01/11 10:35:05;;;;;;;45.40;19.98;;;-3.10;99.90;;;;;;4953234;28;20467;-86
2024/01/11 10:37:35;;;;;;;44.70;19.55;;;-3.00;99.90;;;;;;4954929;28;20059;-86
2024/01/11 10:40:12;;;;;;;43.75;19.45;;;-3.00;99.90;;;;;;4956105;28;20395;-84
2024/01/11 10:42:46;;;;;;;43.30;19.10;;;-2.90;99.90;;;;;;4941053;28;20042;-85
2024/01/11 10:45:16;;;;;;;38.17;18.95;;;-2.90;99.90;;;;;;4953223;28;20036;-86
2024/01/11 10:47:50;;;;;;;43.15;19.38;;;-2.80;99.90;;;;;;4952985;28;20033;-84
2024/01/11 10:50:17;;;;;;;39.92;19.15;;;-2.70;99.90;;;;;;4952995;29;20094;-84
2024/01/11 10:53:10;;;;;;;42.53;18.95;;;-2.70;99.90;;;;;;4921494;28;20546;-84
2024/01/11 10:55:37;;;;;;;39.65;18.40;;;-2.60;99.90;;;;;;4933988;29;20041;-84
2024/01/11 10:58:04;;;;;;;40.20;19.48;;;-2.60;99.90;;;;;;4938570;29;20035;-86
2024/01/11 11:00:31;;;;;;;41.25;20.10;;;-2.60;99.90;;;;;;4939932;29;20031;-85
2024/01/11 11:02:59;;;;;;;45.72;22.88;;;-2.60;99.90;;;;;;4954520;28;20547;-85
2024/01/11 11:05:26;;;;;;;45.90;19.85;;;-2.50;99.90;;;;;;4935894;29;20050;-85
2024/01/11 11:07:53;;;;;;;47.33;20.42;;;-2.50;99.90;;;;;;4939282;28;20091;-85
2024/01/11 11:10:21;;;;;;;48.20;21.90;;;-2.50;99.90;;;;;;4938185;29;20113;-88
2024/01/11 11:12:48;;;;;;;47.28;22.42;;;-2.50;99.90;;;;;;4941499;28;20043;-87
2024/01/11 11:15:15;;;;;;;47.35;21.50;;;-2.50;99.90;;;;;;4921859;28;20097;-87
2024/01/11 11:17:43;;;;;;;49.10;22.08;;;-2.50;99.90;;;;;;4955011;28;20034;-85
2024/01/11 11:20:13;;;;;;;50.67;21.95;;;-2.40;99.90;;;;;;4946681;28;20025;-86
2024/01/11 11:22:45;;;;;;;44.13;20.83;;;-2.40;99.90;;;;;;4941131;28;20150;-86
2024/01/11 11:25:23;;;;;;;45.15;20.50;;;-2.30;99.90;;;;;;4953076;28;20184;-86
2024/01/11 11:27:49;;;;;;;49.53;22.23;;;-2.20;99.90;;;;;;4938768;28;20040;-86
2024/01/11 11:30:19;;;;;;;42.00;20.73;;;-2.20;99.90;;;;;;4951496;28;20515;-86
2024/01/11 11:32:46;;;;;;;42.92;21.17;;;-2.10;99.90;;;;;;4937635;28;20042;-85
2024/01/11 11:35:12;;;;;;;46.70;22.02;;;-2.10;99.90;;;;;;4920068;29;20027;-85
2024/01/11 11:37:39;;;;;;;45.28;21.55;;;-2.00;99.90;;;;;;4941440;28;20453;-85
2024/01/11 11:40:11;;;;;;;46.00;22.42;;;-2.00;99.90;;;;;;4936885;29;20114;-86
2024/01/11 11:42:37;;;;;;;43.33;21.38;;;-2.10;99.90;;;;;;4938192;29;20042;-85
2024/01/11 11:45:03;;;;;;;45.83;21.52;;;-2.10;99.90;;;;;;4953623;28;21398;-85
2024/01/11 11:47:36;;;;;;;46.25;21.63;;;-2.10;99.90;;;;;;4937196;29;20031;-87
2024/01/11 11:50:13;;;;;;;46.38;21.85;;;-2.10;99.90;;;;;;4954339;28;20035;-85
2024/01/11 11:52:43;;;;;;;45.72;21.50;;;-2.10;99.90;;;;;;4952982;28;20551;-86
2024/01/11 11:55:09;;;;;;;43.80;20.30;;;-2.10;99.90;;;;;;4937415;28;20035;-86
2024/01/11 11:57:36;;;;;;;40.75;20.13;;;-2.10;99.90;;;;;;4937844;29;20038;-85
2024/01/11 12:00:05;;;;;;;43.88;21.10;;;-2.10;99.90;;;;;;4937629;28;20035;-85
2024/01/11 12:02:36;;;;;;;46.03;20.63;;;-2.00;99.90;;;;;;4929457;29;20090;-85
2024/01/11 12:05:05;;;;;;;42.45;19.95;;;-2.00;99.90;;;;;;4906798;28;20040;-85
2024/01/11 12:07:31;;;;;;;40.05;19.05;;;-2.00;99.90;;;;;;4936738;29;20039;-85
2024/01/11 12:09:57;;;;;;;38.00;18.80;;;-2.00;99.90;;;;;;4937739;29;20459;-85
2024/01/11 12:12:24;;;;;;;39.65;19.30;;;-2.00;99.90;;;;;;4936735;29;20063;-86
2024/01/11 12:14:50;;;;;;;37.50;18.13;;;-2.00;99.90;;;;;;4942854;29;20032;-87
2024/01/11 12:17:16;;;;;;;38.60;18.77;;;-1.90;99.90;;;;;;4924293;29;20470;-87
2024/01/11 12:19:42;;;;;;;38.47;18.42;;;-1.90;99.90;;;;;;4945411;28;20515;-87
2024/01/11 12:22:08;;;;;;;38.55;19.13;;;-1.90;99.90;;;;;;4923150;29;20044;-87
2024/01/11 12:24:34;;;;;;;40.22;19.90;;;-1.90;99.90;;;;;;4940092;29;20046;-87
2024/01/11 12:27:01;;;;;;;35.17;17.75;;;-1.80;99.90;;;;;;4947909;28;20066;-87